sensor_id;sensor_type;location;lat;lon;timestamp;pressure;altitude;pressure_sealevel;temperature;humidity
15193;BME280;7697;51.630;7.484;2023-04-19T00:01:13;101972.47;;;12.26;84.19
15193;BME280;7697;51.630;7.484;2023-04-19T00:06:15;101965.16;;;12.28;83.83
15193;BME280;7697;51.630;7.484;2023-04-19T00:11:19;101961.66;;;12.28;84.61
15193;BME280;7697;51.630;7.484;2023-04-19T00:16:20;101953.25;;;12.24;84.37
15193;BME280;7697;51.630;7.484;2023-04-19T00:21:22;101949.94;;;12.22;84.93
15193;BME280;7697;51.630;7.484;2023-04-19T00:26:25;101941.78;;;12.24;84.64
15193;BME280;7697;51.630;7.484;2023-04-19T00:31:27;101940.97;;;12.23;84.70
15193;BME280;7697;51.630;7.484;2023-04-19T00:36:29;101938.13;;;12.25;84.51
15193;BME280;7697;51.630;7.484;2023-04-19T00:41:32;101925.03;;;12.23;85.03
15193;BME280;7697;51.630;7.484;2023-04-19T00:46:35;101928.34;;;12.25;84.72
15193;BME280;7697;51.630;7.484;2023-04-19T00:51:38;101927.50;;;12.25;84.56
15193;BME280;7697;51.630;7.484;2023-04-19T00:56:41;101929.13;;;12.26;84.76
15193;BME280;7697;51.630;7.484;2023-04-19T01:01:44;101927.50;;;12.25;84.66
15193;BME280;7697;51.630;7.484;2023-04-19T01:06:46;101923.19;;;12.24;84.48
15193;BME280;7697;51.630;7.484;2023-04-19T01:11:49;101927.69;;;12.23;84.35
15193;BME280;7697;51.630;7.484;2023-04-19T01:16:51;101912.25;;;12.19;84.30
15193;BME280;7697;51.630;7.484;2023-04-19T01:21:53;101914.56;;;12.22;84.28
15193;BME280;7697;51.630;7.484;2023-04-19T01:26:57;101914.41;;;12.23;83.29
15193;BME280;7697;51.630;7.484;2023-04-19T01:31:58;101919.34;;;12.26;82.54
15193;BME280;7697;51.630;7.484;2023-04-19T01:37:00;101911.91;;;12.22;82.28
15193;BME280;7697;51.630;7.484;2023-04-19T01:42:03;101908.09;;;12.24;82.15
15193;BME280;7697;51.630;7.484;2023-04-19T01:47:05;101911.91;;;12.22;82.45
15193;BME280;7697;51.630;7.484;2023-04-19T01:52:07;101908.25;;;12.23;82.33
15193;BME280;7697;51.630;7.484;2023-04-19T01:57:10;101906.50;;;12.15;81.93
15193;BME280;7697;51.630;7.484;2023-04-19T02:02:11;101904.84;;;12.14;81.62
15193;BME280;7697;51.630;7.484;2023-04-19T02:07:13;101910.59;;;12.18;81.32
15193;BME280;7697;51.630;7.484;2023-04-19T02:12:16;101909.66;;;12.11;80.97
15193;BME280;7697;51.630;7.484;2023-04-19T02:17:18;101905.16;;;12.11;80.70
15193;BME280;7697;51.630;7.484;2023-04-19T02:22:19;101901.75;;;12.02;80.70
15193;BME280;7697;51.630;7.484;2023-04-19T02:27:23;101913.53;;;12.00;80.78
15193;BME280;7697;51.630;7.484;2023-04-19T02:32:24;101902.09;;;11.99;80.19
15193;BME280;7697;51.630;7.484;2023-04-19T02:37:26;101905.56;;;12.00;78.08
15193;BME280;7697;51.630;7.484;2023-04-19T02:42:29;101905.00;;;11.90;77.94
15193;BME280;7697;51.630;7.484;2023-04-19T02:47:31;101909.66;;;11.88;78.13
15193;BME280;7697;51.630;7.484;2023-04-19T02:52:32;101916.78;;;11.87;76.78
15193;BME280;7697;51.630;7.484;2023-04-19T02:57:35;101919.78;;;11.84;76.53
15193;BME280;7697;51.630;7.484;2023-04-19T03:02:37;101915.13;;;11.86;76.51
15193;BME280;7697;51.630;7.484;2023-04-19T03:07:39;101904.56;;;11.78;75.60
15193;BME280;7697;51.630;7.484;2023-04-19T03:12:42;101903.91;;;11.76;75.75
15193;BME280;7697;51.630;7.484;2023-04-19T03:17:44;101906.22;;;11.71;75.57
15193;BME280;7697;51.630;7.484;2023-04-19T03:22:45;101890.69;;;11.60;73.84
15193;BME280;7697;51.630;7.484;2023-04-19T03:27:48;101897.69;;;11.53;74.38
15193;BME280;7697;51.630;7.484;2023-04-19T03:32:51;101898.06;;;11.42;74.66
15193;BME280;7697;51.630;7.484;2023-04-19T03:37:53;101889.31;;;11.33;74.83
15193;BME280;7697;51.630;7.484;2023-04-19T03:42:56;101891.81;;;11.26;74.52
15193;BME280;7697;51.630;7.484;2023-04-19T03:47:57;101894.13;;;11.21;74.79
15193;BME280;7697;51.630;7.484;2023-04-19T03:52:59;101885.88;;;11.16;75.25
15193;BME280;7697;51.630;7.484;2023-04-19T03:58:02;101881.41;;;11.17;75.13
15193;BME280;7697;51.630;7.484;2023-04-19T04:03:04;101889.72;;;11.06;75.09
15193;BME280;7697;51.630;7.484;2023-04-19T04:08:05;101884.25;;;11.07;75.78
15193;BME280;7697;51.630;7.484;2023-04-19T04:13:08;101895.19;;;11.04;76.28
15193;BME280;7697;51.630;7.484;2023-04-19T04:18:10;101888.09;;;10.97;76.65
15193;BME280;7697;51.630;7.484;2023-04-19T04:23:12;101905.50;;;10.91;77.23
15193;BME280;7697;51.630;7.484;2023-04-19T04:28:15;101899.69;;;10.87;77.02
15193;BME280;7697;51.630;7.484;2023-04-19T04:33:17;101898.22;;;10.77;77.76
15193;BME280;7697;51.630;7.484;2023-04-19T04:38:19;101899.38;;;10.74;77.17
15193;BME280;7697;51.630;7.484;2023-04-19T04:43:23;101908.97;;;10.67;77.14
15193;BME280;7697;51.630;7.484;2023-04-19T04:48:28;101914.44;;;10.66;76.71
15193;BME280;7697;51.630;7.484;2023-04-19T04:53:30;101915.13;;;10.60;76.80
15193;BME280;7697;51.630;7.484;2023-04-19T04:58:33;101916.78;;;10.52;75.24
15193;BME280;7697;51.630;7.484;2023-04-19T05:03:35;101912.47;;;10.43;72.73
15193;BME280;7697;51.630;7.484;2023-04-19T05:08:37;101916.78;;;10.36;70.16
15193;BME280;7697;51.630;7.484;2023-04-19T05:13:40;101926.53;;;10.36;66.12
15193;BME280;7697;51.630;7.484;2023-04-19T05:18:42;101928.16;;;10.21;66.18
15193;BME280;7697;51.630;7.484;2023-04-19T05:23:43;101929.34;;;10.18;66.22
15193;BME280;7697;51.630;7.484;2023-04-19T05:28:46;101933.97;;;10.24;66.51
15193;BME280;7697;51.630;7.484;2023-04-19T05:33:48;101925.34;;;10.22;64.51
15193;BME280;7697;51.630;7.484;2023-04-19T05:38:50;101933.81;;;10.18;64.30
15193;BME280;7697;51.630;7.484;2023-04-19T05:43:53;101941.41;;;10.21;63.83
15193;BME280;7697;51.630;7.484;2023-04-19T05:48:55;101933.13;;;10.24;64.06
15193;BME280;7697;51.630;7.484;2023-04-19T05:53:57;101934.97;;;10.31;64.56
15193;BME280;7697;51.630;7.484;2023-04-19T05:59:01;101929.88;;;10.38;61.40
15193;BME280;7697;51.630;7.484;2023-04-19T06:04:03;101934.81;;;10.33;62.23
15193;BME280;7697;51.630;7.484;2023-04-19T06:09:05;101924.06;;;10.34;61.84
15193;BME280;7697;51.630;7.484;2023-04-19T06:14:09;101926.88;;;10.41;62.13
15193;BME280;7697;51.630;7.484;2023-04-19T06:19:10;101921.72;;;10.47;61.87
15193;BME280;7697;51.630;7.484;2023-04-19T06:24:12;101922.91;;;10.53;61.25
15193;BME280;7697;51.630;7.484;2023-04-19T06:29:16;101922.91;;;10.61;59.44
15193;BME280;7697;51.630;7.484;2023-04-19T06:34:19;101922.91;;;10.69;60.27
15193;BME280;7697;51.630;7.484;2023-04-19T06:39:21;101923.06;;;10.76;60.58
15193;BME280;7697;51.630;7.484;2023-04-19T06:44:24;101936.28;;;10.84;59.10
15193;BME280;7697;51.630;7.484;2023-04-19T06:49:27;101931.66;;;10.86;58.93
15193;BME280;7697;51.630;7.484;2023-04-19T06:54:29;101945.91;;;10.93;59.98
15193;BME280;7697;51.630;7.484;2023-04-19T06:59:32;101930.97;;;11.16;58.72
15193;BME280;7697;51.630;7.484;2023-04-19T07:04:34;101941.19;;;11.27;58.44
15193;BME280;7697;51.630;7.484;2023-04-19T07:09:36;101936.41;;;11.23;58.53
15193;BME280;7697;51.630;7.484;2023-04-19T07:14:40;101937.78;;;11.58;58.31
15193;BME280;7697;51.630;7.484;2023-04-19T07:19:46;101933.09;;;11.68;57.51
15193;BME280;7697;51.630;7.484;2023-04-19T07:24:48;101938.91;;;11.63;56.74
15193;BME280;7697;51.630;7.484;2023-04-19T07:29:52;101940.16;;;11.45;57.23
15193;BME280;7697;51.630;7.484;2023-04-19T07:34:54;101940.22;;;11.68;57.20
15193;BME280;7697;51.630;7.484;2023-04-19T07:39:56;101945.84;;;11.81;57.88
15193;BME280;7697;51.630;7.484;2023-04-19T07:44:59;101945.53;;;12.07;55.70
15193;BME280;7697;51.630;7.484;2023-04-19T07:50:01;101936.16;;;12.19;55.81
15193;BME280;7697;51.630;7.484;2023-04-19T07:55:06;101930.56;;;12.36;55.93
15193;BME280;7697;51.630;7.484;2023-04-19T08:00:11;101944.72;;;12.74;54.42
15193;BME280;7697;51.630;7.484;2023-04-19T08:05:13;101941.31;;;12.81;53.05
15193;BME280;7697;51.630;7.484;2023-04-19T08:10:17;101947.25;;;13.05;52.65
15193;BME280;7697;51.630;7.484;2023-04-19T08:15:20;101938.03;;;13.31;51.95
15193;BME280;7697;51.630;7.484;2023-04-19T08:20:22;101950.31;;;13.61;50.98
15193;BME280;7697;51.630;7.484;2023-04-19T08:25:24;101934.56;;;13.60;51.46
15193;BME280;7697;51.630;7.484;2023-04-19T08:30:29;101936.09;;;13.54;50.29
15193;BME280;7697;51.630;7.484;2023-04-19T08:35:33;101933.22;;;13.85;49.66
15193;BME280;7697;51.630;7.484;2023-04-19T08:40:37;101951.88;;;14.06;48.29
15193;BME280;7697;51.630;7.484;2023-04-19T08:45:45;101949.28;;;13.92;46.07
15193;BME280;7697;51.630;7.484;2023-04-19T08:50:47;101937.47;;;13.65;45.69
15193;BME280;7697;51.630;7.484;2023-04-19T08:55:50;101936.19;;;13.61;47.63
15193;BME280;7697;51.630;7.484;2023-04-19T09:00:56;101939.09;;;13.80;49.34
15193;BME280;7697;51.630;7.484;2023-04-19T09:05:59;101939.66;;;13.76;49.02
15193;BME280;7697;51.630;7.484;2023-04-19T09:11:02;101940.63;;;14.04;48.88
15193;BME280;7697;51.630;7.484;2023-04-19T09:16:05;101937.13;;;14.04;50.00
15193;BME280;7697;51.630;7.484;2023-04-19T09:21:08;101928.81;;;14.35;50.11
15193;BME280;7697;51.630;7.484;2023-04-19T09:26:12;101931.94;;;14.81;48.40
15193;BME280;7697;51.630;7.484;2023-04-19T09:31:15;101910.78;;;14.79;47.76
15193;BME280;7697;51.630;7.484;2023-04-19T09:36:26;101898.06;;;15.09;47.95
15193;BME280;7697;51.630;7.484;2023-04-19T09:41:29;101906.19;;;15.29;44.73
15193;BME280;7697;51.630;7.484;2023-04-19T09:46:35;101890.34;;;15.68;44.29
15193;BME280;7697;51.630;7.484;2023-04-19T09:51:39;101885.13;;;16.08;44.26
15193;BME280;7697;51.630;7.484;2023-04-19T09:56:41;101886.38;;;16.25;42.67
15193;BME280;7697;51.630;7.484;2023-04-19T10:01:45;101871.16;;;16.39;39.83
15193;BME280;7697;51.630;7.484;2023-04-19T10:06:48;101866.66;;;16.79;41.26
15193;BME280;7697;51.630;7.484;2023-04-19T10:11:52;101874.06;;;16.77;40.94
15193;BME280;7697;51.630;7.484;2023-04-19T10:16:55;101864.97;;;16.91;42.29
15193;BME280;7697;51.630;7.484;2023-04-19T10:21:58;101857.97;;;16.83;41.52
15193;BME280;7697;51.630;7.484;2023-04-19T10:27:07;101852.56;;;17.16;41.54
15193;BME280;7697;51.630;7.484;2023-04-19T10:32:13;101851.69;;;17.36;40.04
15193;BME280;7697;51.630;7.484;2023-04-19T10:37:15;101852.59;;;17.61;39.71
15193;BME280;7697;51.630;7.484;2023-04-19T10:42:17;101843.41;;;17.82;38.30
15193;BME280;7697;51.630;7.484;2023-04-19T10:47:41;101851.72;;;17.74;38.32
15193;BME280;7697;51.630;7.484;2023-04-19T10:52:43;101843.28;;;17.70;37.27
15193;BME280;7697;51.630;7.484;2023-04-19T10:58:01;101830.41;;;17.85;36.52
15193;BME280;7697;51.630;7.484;2023-04-19T11:08:43;101806.84;;;17.94;35.91
15193;BME280;7697;51.630;7.484;2023-04-19T11:13:46;101809.16;;;18.15;37.19
15193;BME280;7697;51.630;7.484;2023-04-19T11:18:48;101784.25;;;18.33;35.29
15193;BME280;7697;51.630;7.484;2023-04-19T11:24:07;101766.75;;;18.49;36.19
15193;BME280;7697;51.630;7.484;2023-04-19T11:29:09;101784.09;;;18.46;34.75
15193;BME280;7697;51.630;7.484;2023-04-19T11:34:11;101764.97;;;18.43;35.48
15193;BME280;7697;51.630;7.484;2023-04-19T11:39:14;101777.06;;;18.52;35.69
15193;BME280;7697;51.630;7.484;2023-04-19T11:44:17;101766.75;;;18.49;34.28
15193;BME280;7697;51.630;7.484;2023-04-19T11:49:24;101778.63;;;18.16;35.54
15193;BME280;7697;51.630;7.484;2023-04-19T11:54:28;101761.66;;;18.65;36.64
15193;BME280;7697;51.630;7.484;2023-04-19T11:59:31;101749.13;;;18.96;36.50
15193;BME280;7697;51.630;7.484;2023-04-19T12:04:33;101742.69;;;18.97;35.45
15193;BME280;7697;51.630;7.484;2023-04-19T12:09:37;101733.81;;;19.15;35.23
15193;BME280;7697;51.630;7.484;2023-04-19T12:14:50;101723.22;;;19.31;33.88
15193;BME280;7697;51.630;7.484;2023-04-19T12:19:52;101728.06;;;19.41;33.83
15193;BME280;7697;51.630;7.484;2023-04-19T12:24:55;101715.28;;;19.36;31.89
15193;BME280;7697;51.630;7.484;2023-04-19T12:29:57;101706.63;;;19.23;32.75
15193;BME280;7697;51.630;7.484;2023-04-19T12:34:59;101709.06;;;19.24;32.29
15193;BME280;7697;51.630;7.484;2023-04-19T12:40:03;101692.44;;;19.16;33.17
15193;BME280;7697;51.630;7.484;2023-04-19T12:45:06;101691.81;;;19.43;33.80
15193;BME280;7697;51.630;7.484;2023-04-19T12:50:08;101687.47;;;19.72;31.32
15193;BME280;7697;51.630;7.484;2023-04-19T12:55:11;101709.28;;;19.53;31.70
15193;BME280;7697;51.630;7.484;2023-04-19T13:00:13;101690.03;;;19.26;31.45
15193;BME280;7697;51.630;7.484;2023-04-19T13:05:16;101682.69;;;19.33;31.98
15193;BME280;7697;51.630;7.484;2023-04-19T13:10:20;101672.84;;;19.80;33.61
15193;BME280;7697;51.630;7.484;2023-04-19T13:15:21;101655.34;;;20.12;32.77
15193;BME280;7697;51.630;7.484;2023-04-19T13:20:23;101663.28;;;19.84;30.83
15193;BME280;7697;51.630;7.484;2023-04-19T13:25:26;101656.59;;;19.63;30.33
15193;BME280;7697;51.630;7.484;2023-04-19T13:30:28;101639.78;;;19.56;31.72
15193;BME280;7697;51.630;7.484;2023-04-19T13:35:30;101632.06;;;19.48;31.02
15193;BME280;7697;51.630;7.484;2023-04-19T13:40:34;101624.75;;;19.37;31.06
15193;BME280;7697;51.630;7.484;2023-04-19T13:45:35;101632.53;;;19.57;30.93
15193;BME280;7697;51.630;7.484;2023-04-19T13:50:37;101620.38;;;19.66;30.95
15193;BME280;7697;51.630;7.484;2023-04-19T13:55:41;101611.50;;;19.54;32.02
15193;BME280;7697;51.630;7.484;2023-04-19T14:00:42;101595.59;;;19.52;30.13
15193;BME280;7697;51.630;7.484;2023-04-19T14:05:45;101606.50;;;19.16;31.36
15193;BME280;7697;51.630;7.484;2023-04-19T14:10:48;101603.47;;;19.12;32.24
15193;BME280;7697;51.630;7.484;2023-04-19T14:15:50;101588.72;;;19.03;30.81
15193;BME280;7697;51.630;7.484;2023-04-19T14:20:52;101572.03;;;19.01;31.74
15193;BME280;7697;51.630;7.484;2023-04-19T14:25:56;101566.94;;;19.34;32.06
15193;BME280;7697;51.630;7.484;2023-04-19T14:30:58;101555.34;;;19.34;30.98
15193;BME280;7697;51.630;7.484;2023-04-19T14:36:00;101549.28;;;19.27;31.17
15193;BME280;7697;51.630;7.484;2023-04-19T14:41:03;101544.50;;;19.29;31.20
15193;BME280;7697;51.630;7.484;2023-04-19T14:46:05;101539.72;;;19.19;31.74
15193;BME280;7697;51.630;7.484;2023-04-19T14:51:08;101530.84;;;19.19;31.79
15193;BME280;7697;51.630;7.484;2023-04-19T14:56:11;101526.28;;;19.42;32.76
15193;BME280;7697;51.630;7.484;2023-04-19T15:01:14;101530.63;;;19.55;30.40
15193;BME280;7697;51.630;7.484;2023-04-19T15:06:16;101533.03;;;19.10;31.35
15193;BME280;7697;51.630;7.484;2023-04-19T15:11:19;101530.28;;;18.75;31.06
15193;BME280;7697;51.630;7.484;2023-04-19T15:16:21;101515.13;;;18.69;31.61
15193;BME280;7697;51.630;7.484;2023-04-19T15:21:23;101517.09;;;18.73;31.22
15193;BME280;7697;51.630;7.484;2023-04-19T15:26:27;101519.91;;;18.49;30.46
15193;BME280;7697;51.630;7.484;2023-04-19T15:31:30;101525.13;;;18.14;29.58
15193;BME280;7697;51.630;7.484;2023-04-19T15:36:32;101499.81;;;17.91;30.71
15193;BME280;7697;51.630;7.484;2023-04-19T15:41:35;101513.69;;;17.88;29.71
15193;BME280;7697;51.630;7.484;2023-04-19T15:46:37;101502.47;;;17.55;30.75
15193;BME280;7697;51.630;7.484;2023-04-19T15:51:38;101508.91;;;17.29;30.87
15193;BME280;7697;51.630;7.484;2023-04-19T15:56:54;101499.59;;;17.13;31.67
15193;BME280;7697;51.630;7.484;2023-04-19T16:01:56;101495.00;;;17.20;32.42
15193;BME280;7697;51.630;7.484;2023-04-19T16:06:58;101495.44;;;17.17;32.17
15193;BME280;7697;51.630;7.484;2023-04-19T16:12:02;101502.75;;;17.04;31.08
15193;BME280;7697;51.630;7.484;2023-04-19T16:17:04;101499.03;;;16.80;30.94
15193;BME280;7697;51.630;7.484;2023-04-19T16:22:06;101507.22;;;16.54;31.29
15193;BME280;7697;51.630;7.484;2023-04-19T16:27:10;101494.78;;;16.34;31.15
15193;BME280;7697;51.630;7.484;2023-04-19T16:32:11;101493.41;;;16.25;31.90
15193;BME280;7697;51.630;7.484;2023-04-19T16:37:13;101487.38;;;16.30;32.02
15193;BME280;7697;51.630;7.484;2023-04-19T16:42:18;101492.81;;;16.17;32.00
15193;BME280;7697;51.630;7.484;2023-04-19T16:47:20;101501.50;;;16.05;32.42
15193;BME280;7697;51.630;7.484;2023-04-19T16:52:23;101498.88;;;15.99;32.92
15193;BME280;7697;51.630;7.484;2023-04-19T16:57:27;101507.25;;;16.09;32.60
15193;BME280;7697;51.630;7.484;2023-04-19T17:02:29;101492.53;;;15.87;33.06
15193;BME280;7697;51.630;7.484;2023-04-19T17:07:30;101488.13;;;15.54;32.97
15193;BME280;7697;51.630;7.484;2023-04-19T17:12:34;101488.94;;;15.42;34.13
15193;BME280;7697;51.630;7.484;2023-04-19T17:17:36;101487.13;;;15.29;34.10
15193;BME280;7697;51.630;7.484;2023-04-19T17:22:37;101482.19;;;15.19;33.97
15193;BME280;7697;51.630;7.484;2023-04-19T17:27:41;101481.16;;;15.07;34.68
15193;BME280;7697;51.630;7.484;2023-04-19T17:32:43;101486.53;;;15.00;34.97
15193;BME280;7697;51.630;7.484;2023-04-19T17:37:45;101491.25;;;14.92;34.58
15193;BME280;7697;51.630;7.484;2023-04-19T17:42:48;101492.88;;;14.80;34.63
15193;BME280;7697;51.630;7.484;2023-04-19T17:47:50;101493.84;;;14.59;35.37
15193;BME280;7697;51.630;7.484;2023-04-19T17:52:54;101495.88;;;14.44;35.94
15193;BME280;7697;51.630;7.484;2023-04-19T17:57:58;101491.72;;;14.28;36.07
15193;BME280;7697;51.630;7.484;2023-04-19T18:03:00;101494.97;;;14.17;36.82
15193;BME280;7697;51.630;7.484;2023-04-19T18:08:02;101497.00;;;14.15;37.12
15193;BME280;7697;51.630;7.484;2023-04-19T18:13:05;101489.16;;;14.00;37.44
15193;BME280;7697;51.630;7.484;2023-04-19T18:18:07;101487.88;;;13.83;37.92
15193;BME280;7697;51.630;7.484;2023-04-19T18:23:09;101501.97;;;13.77;38.29
15193;BME280;7697;51.630;7.484;2023-04-19T18:28:12;101507.47;;;13.69;38.68
15193;BME280;7697;51.630;7.484;2023-04-19T18:33:14;101508.41;;;13.61;38.72
15193;BME280;7697;51.630;7.484;2023-04-19T18:38:16;101506.91;;;13.45;39.38
15193;BME280;7697;51.630;7.484;2023-04-19T18:43:20;101512.38;;;13.37;39.52
15193;BME280;7697;51.630;7.484;2023-04-19T18:48:22;101506.72;;;13.19;40.38
15193;BME280;7697;51.630;7.484;2023-04-19T18:53:26;101518.09;;;13.13;40.82
15193;BME280;7697;51.630;7.484;2023-04-19T18:58:30;101514.69;;;12.98;40.73
15193;BME280;7697;51.630;7.484;2023-04-19T19:03:32;101522.06;;;12.96;41.11
15193;BME280;7697;51.630;7.484;2023-04-19T19:08:34;101521.78;;;12.91;41.02
15193;BME280;7697;51.630;7.484;2023-04-19T19:13:38;101516.59;;;12.83;41.58
15193;BME280;7697;51.630;7.484;2023-04-19T19:18:40;101518.50;;;12.67;42.10
15193;BME280;7697;51.630;7.484;2023-04-19T19:23:42;101520.84;;;12.56;42.07
15193;BME280;7697;51.630;7.484;2023-04-19T19:28:45;101514.81;;;12.47;42.54
15193;BME280;7697;51.630;7.484;2023-04-19T19:33:47;101526.22;;;12.41;43.00
15193;BME280;7697;51.630;7.484;2023-04-19T19:38:49;101523.28;;;12.36;43.20
15193;BME280;7697;51.630;7.484;2023-04-19T19:43:52;101532.00;;;12.30;43.26
15193;BME280;7697;51.630;7.484;2023-04-19T19:48:54;101531.09;;;12.23;43.91
15193;BME280;7697;51.630;7.484;2023-04-19T19:53:56;101537.88;;;12.11;44.38
15193;BME280;7697;51.630;7.484;2023-04-19T19:58:59;101533.03;;;11.99;44.68
15193;BME280;7697;51.630;7.484;2023-04-19T20:04:01;101545.69;;;11.97;44.44
15193;BME280;7697;51.630;7.484;2023-04-19T20:09:03;101547.63;;;11.89;45.14
15193;BME280;7697;51.630;7.484;2023-04-19T20:14:06;101545.06;;;11.81;45.28
15193;BME280;7697;51.630;7.484;2023-04-19T20:19:08;101542.66;;;11.71;45.69
15193;BME280;7697;51.630;7.484;2023-04-19T20:24:11;101541.00;;;11.70;45.62
15193;BME280;7697;51.630;7.484;2023-04-19T20:29:14;101548.59;;;11.58;46.04
15193;BME280;7697;51.630;7.484;2023-04-19T20:34:16;101544.84;;;11.53;46.20
15193;BME280;7697;51.630;7.484;2023-04-19T20:39:18;101539.66;;;11.37;46.84
15193;BME280;7697;51.630;7.484;2023-04-19T20:44:21;101541.41;;;11.29;46.72
15193;BME280;7697;51.630;7.484;2023-04-19T20:49:23;101530.88;;;11.21;47.07
15193;BME280;7697;51.630;7.484;2023-04-19T20:54:25;101541.72;;;11.12;47.41
15193;BME280;7697;51.630;7.484;2023-04-19T20:59:28;101529.00;;;11.07;47.14
15193;BME280;7697;51.630;7.484;2023-04-19T21:04:30;101535.31;;;11.06;47.15
15193;BME280;7697;51.630;7.484;2023-04-19T21:09:31;101527.25;;;11.00;47.06
15193;BME280;7697;51.630;7.484;2023-04-19T21:14:35;101520.72;;;10.87;47.48
15193;BME280;7697;51.630;7.484;2023-04-19T21:19:36;101528.84;;;10.86;46.68
15193;BME280;7697;51.630;7.484;2023-04-19T21:24:41;101516.50;;;10.78;46.44
15193;BME280;7697;51.630;7.484;2023-04-19T21:29:44;101505.13;;;10.70;46.47
15193;BME280;7697;51.630;7.484;2023-04-19T21:34:48;101495.53;;;10.69;46.33
15193;BME280;7697;51.630;7.484;2023-04-19T21:39:50;101501.81;;;10.68;46.30
15193;BME280;7697;51.630;7.484;2023-04-19T21:44:53;101499.50;;;10.65;45.86
15193;BME280;7697;51.630;7.484;2023-04-19T21:49:57;101496.41;;;10.61;46.35
15193;BME280;7697;51.630;7.484;2023-04-19T21:54:59;101493.28;;;10.58;46.29
15193;BME280;7697;51.630;7.484;2023-04-19T22:00:03;101492.28;;;10.59;46.15
15193;BME280;7697;51.630;7.484;2023-04-19T22:05:06;101501.94;;;10.51;45.80
15193;BME280;7697;51.630;7.484;2023-04-19T22:10:08;101485.56;;;10.48;45.77
15193;BME280;7697;51.630;7.484;2023-04-19T22:15:12;101478.06;;;10.37;46.08
15193;BME280;7697;51.630;7.484;2023-04-19T22:20:14;101475.91;;;10.32;46.09
15193;BME280;7697;51.630;7.484;2023-04-19T22:25:17;101467.69;;;10.27;45.21
15193;BME280;7697;51.630;7.484;2023-04-19T22:30:20;101461.91;;;10.24;46.27
15193;BME280;7697;51.630;7.484;2023-04-19T22:35:22;101464.25;;;10.19;45.92
15193;BME280;7697;51.630;7.484;2023-04-19T22:40:24;101462.47;;;10.11;46.00
15193;BME280;7697;51.630;7.484;2023-04-19T22:45:27;101458.34;;;10.08;45.79
15193;BME280;7697;51.630;7.484;2023-04-19T22:50:29;101471.41;;;10.10;46.32
15193;BME280;7697;51.630;7.484;2023-04-19T22:55:31;101453.91;;;10.01;46.19
15193;BME280;7697;51.630;7.484;2023-04-19T23:00:48;101446.78;;;10.01;46.54
15193;BME280;7697;51.630;7.484;2023-04-19T23:05:50;101429.13;;;9.94;46.71
15193;BME280;7697;51.630;7.484;2023-04-19T23:10:53;101419.56;;;9.93;47.20
15193;BME280;7697;51.630;7.484;2023-04-19T23:15:56;101418.06;;;9.90;47.28
15193;BME280;7697;51.630;7.484;2023-04-19T23:20:58;101419.25;;;9.88;47.22
15193;BME280;7697;51.630;7.484;2023-04-19T23:26:00;101419.25;;;9.88;47.35
15193;BME280;7697;51.630;7.484;2023-04-19T23:31:03;101416.09;;;9.92;47.13
15193;BME280;7697;51.630;7.484;2023-04-19T23:36:05;101399.56;;;9.90;47.66
15193;BME280;7697;51.630;7.484;2023-04-19T23:41:09;101397.38;;;9.94;48.26
15193;BME280;7697;51.630;7.484;2023-04-19T23:46:13;101391.75;;;9.97;48.19
15193;BME280;7697;51.630;7.484;2023-04-19T23:51:16;101387.59;;;9.94;48.12
15193;BME280;7697;51.630;7.484;2023-04-19T23:56:18;101376.03;;;9.95;48.00
